Embarrass, Wisconsin
Current Conditions -  °F | °C
As of 1:15 AM on Saturday 01 Nov 2014 (Local Time) from KCLI Reporting Station
Overcast Overcast  
Wind Chill: -1°   Ceiling: 3600
Heat Index: -1°   Visibility: 10mi
Dew Point: -7°   Wind: 3mph
Humidity: 64%   Direction: 330°NNW
Pressure: 30.45"   Gusts: NA
Location:  44.67°N, 88.71°W
Report Text: KCLI 010615Z AUTO 33003KT 10SM OVC036 M01/M07 A3045 RMK AO2
Loading
Personal Weather Stations






























Interactive Weather Map
Tropical Storm Tracking
New forecast layout! Learn more

10-Day Weather Forecast

Advertisements
Track Severe Weather on mobile